Time;durP1;ratioP1;P1;durP2;ratioP2;P2;SDS_P1;SDS_P2;PMS_P1;PMS_P2;Temp;Humidity;BMP_temperature;BMP_pressure;BME280_temperature;BME280_humidity;BME280_pressure;Samples;Min_cycle;Max_cycle;Signal;HPM_P1;HPM_P2
2022/03/25 00:01:12;;;;;;;41.10;18.83;;;;;;;13.20;35.66;102189.69;5092679;28;20097;-63
2022/03/25 00:03:40;;;;;;;37.47;16.55;;;;;;;13.12;35.69;102185.66;5091984;28;20048;-62
2022/03/25 00:06:08;;;;;;;30.55;17.58;;;;;;;13.01;35.95;102191.38;5092379;28;20436;-63
2022/03/25 00:08:38;;;;;;;32.85;17.92;;;;;;;13.00;35.87;102193.19;5092489;28;20135;-62
2022/03/25 00:11:05;;;;;;;29.60;16.85;;;;;;;12.95;36.02;102192.53;5092467;28;20060;-63
2022/03/25 00:13:32;;;;;;;31.17;16.88;;;;;;;12.83;36.27;102191.25;5081804;28;20056;-62
2022/03/25 00:15:58;;;;;;;26.98;17.35;;;;;;;12.70;36.33;102192.72;5080755;28;20059;-62
2022/03/25 00:18:25;;;;;;;30.30;18.85;;;;;;;12.66;36.31;102199.88;5071519;28;20044;-63
2022/03/25 00:20:52;;;;;;;32.30;18.48;;;;;;;12.63;36.37;102191.25;5071888;28;20044;-63
2022/03/25 00:23:18;;;;;;;31.67;19.13;;;;;;;12.64;36.37;102196.44;5071917;28;20119;-63
2022/03/25 00:25:45;;;;;;;26.38;18.55;;;;;;;12.61;36.31;102198.34;5071918;28;20386;-63
2022/03/25 00:28:11;;;;;;;28.45;18.33;;;;;;;12.55;36.38;102200.31;5071900;28;20094;-62
2022/03/25 00:30:39;;;;;;;27.63;17.95;;;;;;;12.54;36.42;102196.00;5072090;28;20049;-63
2022/03/25 00:33:06;;;;;;;25.92;17.23;;;;;;;12.54;36.34;102201.28;5071710;28;20084;-63
2022/03/25 00:35:33;;;;;;;30.23;17.70;;;;;;;12.47;36.44;102191.91;5071526;28;20048;-62
2022/03/25 00:37:59;;;;;;;30.08;18.90;;;;;;;12.37;36.54;102191.41;5071796;28;20044;-63
2022/03/25 00:40:27;;;;;;;28.65;18.73;;;;;;;12.35;36.48;102187.13;5071661;28;20485;-63
2022/03/25 00:42:54;;;;;;;32.90;19.27;;;;;;;12.31;36.57;102191.66;5071630;28;20052;-62
2022/03/25 00:45:21;;;;;;;30.70;18.67;;;;;;;12.28;36.54;102191.78;5071384;28;20048;-63
2022/03/25 00:47:47;;;;;;;30.00;19.55;;;;;;;12.26;36.69;102198.88;5071941;28;20048;-63
2022/03/25 00:50:14;;;;;;;34.70;20.20;;;;;;;12.25;36.58;102194.53;5069615;28;20455;-63
2022/03/25 00:52:45;;;;;;;31.52;20.45;;;;;;;12.16;36.76;102184.38;5071129;28;20044;-63
2022/03/25 00:55:12;;;;;;;33.00;20.50;;;;;;;12.08;36.92;102187.31;5071445;28;20045;-63
2022/03/25 00:57:39;;;;;;;34.38;19.58;;;;;;;12.04;37.22;102188.38;5071026;28;20044;-63
2022/03/25 01:00:06;;;;;;;29.38;19.45;;;;;;;12.01;37.15;102189.34;5071291;28;20052;-63
2022/03/25 01:02:34;;;;;;;27.83;18.67;;;;;;;12.01;37.12;102189.34;5079363;28;20056;-62
2022/03/25 01:05:01;;;;;;;35.22;20.95;;;;;;;12.08;36.90;102188.19;5091041;28;20469;-62
2022/03/25 01:07:27;;;;;;;28.63;19.00;;;;;;;12.13;37.01;102177.47;5090201;28;20460;-62
2022/03/25 01:09:54;;;;;;;29.23;18.52;;;;;;;12.16;36.98;102182.59;5091585;28;20055;-62
2022/03/25 01:12:21;;;;;;;30.52;19.02;;;;;;;12.16;37.04;102174.72;5091471;28;20101;-62
2022/03/25 01:14:49;;;;;;;30.40;19.67;;;;;;;12.16;37.27;102176.50;5091236;28;20052;-63
2022/03/25 01:17:19;;;;;;;27.58;19.20;;;;;;;12.14;37.39;102171.31;5091135;28;20051;-62
2022/03/25 01:19:46;;;;;;;31.10;18.52;;;;;;;12.14;37.53;102167.78;5087726;28;20052;-63
2022/03/25 01:22:14;;;;;;;29.35;18.42;;;;;;;12.12;37.74;102167.88;5070755;28;20052;-63
2022/03/25 01:24:41;;;;;;;27.88;18.42;;;;;;;12.12;37.70;102173.13;5070794;28;20512;-62
2022/03/25 01:27:07;;;;;;;33.53;19.20;;;;;;;12.14;37.72;102171.31;5071140;28;20053;-63
2022/03/25 01:29:34;;;;;;;27.70;18.08;;;;;;;12.17;37.82;102168.53;5070811;28;20064;-63
2022/03/25 01:32:01;;;;;;;27.85;18.33;;;;;;;12.19;37.90;102168.47;5070861;28;20056;-62
2022/03/25 01:34:28;;;;;;;27.42;17.50;;;;;;;12.15;38.05;102165.13;5069986;28;20045;-62
2022/03/25 01:36:55;;;;;;;28.08;19.08;;;;;;;12.06;38.21;102158.44;5070285;28;20094;-62
2022/03/25 01:39:22;;;;;;;29.90;19.08;;;;;;;11.97;38.62;102156.16;5070579;28;20044;-63
2022/03/25 01:41:49;;;;;;;29.27;19.48;;;;;;;11.91;38.73;102162.50;5070537;28;20121;-63
2022/03/25 01:44:23;;;;;;;31.55;18.38;;;;;;;11.91;38.77;102151.16;5070503;28;20048;-63
2022/03/25 01:46:50;;;;;;;30.38;18.88;;;;;;;11.92;38.80;102148.44;5070666;28;20048;-62
2022/03/25 01:49:18;;;;;;;32.05;20.08;;;;;;;11.92;38.98;102147.56;5070381;28;20381;-62
2022/03/25 01:51:48;;;;;;;31.55;18.83;;;;;;;11.93;38.86;102149.28;5070441;28;20087;-63
2022/03/25 01:54:29;;;;;;;28.80;19.60;;;;;;;11.88;39.04;102138.97;5070445;28;20059;-63
2022/03/25 01:57:03;;;;;;;28.05;17.77;;;;;;;11.81;39.16;102142.75;5070657;28;20063;-62
2022/03/25 01:59:31;;;;;;;31.17;18.55;;;;;;;11.79;38.94;102149.84;5070098;28;20045;-62
2022/03/25 02:01:59;;;;;;;8.95;5.32;;;;;;;12.43;38.79;102145.56;5070327;28;20054;-61
2022/03/25 02:04:26;;;;;;;27.92;19.10;;;;;;;12.48;40.37;102147.97;5069859;28;20075;-63
2022/03/25 02:06:53;;;;;;;29.58;19.25;;;;;;;12.16;40.46;102151.03;5070522;28;20440;-63
2022/03/25 02:09:20;;;;;;;29.35;19.02;;;;;;;11.93;40.38;102141.41;5076629;28;20044;-62
2022/03/25 02:11:47;;;;;;;31.55;17.83;;;;;;;11.77;40.29;102146.44;5088260;28;20484;-62
2022/03/25 02:14:14;;;;;;;27.48;18.35;;;;;;;11.66;40.10;102143.34;5090014;28;20048;-63
2022/03/25 02:16:43;;;;;;;26.65;17.92;;;;;;;11.56;40.16;102154.22;5090467;28;20496;-62
2022/03/25 02:19:16;;;;;;;28.48;17.75;;;;;;;11.51;39.96;102148.25;5090098;28;20446;-63
2022/03/25 02:21:44;;;;;;;27.80;19.02;;;;;;;11.48;39.76;102143.16;5090341;28;20048;-63
2022/03/25 02:24:15;;;;;;;26.33;17.48;;;;;;;11.47;39.94;102146.69;5090353;28;20044;-62
2022/03/25 02:26:44;;;;;;;30.00;19.25;;;;;;;11.54;40.05;102136.78;5088919;28;20044;-62
2022/03/25 02:29:14;;;;;;;29.52;18.45;;;;;;;11.54;40.36;102135.03;5090272;28;20055;-62
2022/03/25 02:31:42;;;;;;;31.80;19.52;;;;;;;11.59;40.54;102138.34;5089991;28;20048;-62
2022/03/25 02:34:10;;;;;;;26.40;18.15;;;;;;;11.59;40.62;102130.44;5089717;28;20047;-62
2022/03/25 02:36:45;;;;;;;27.95;18.13;;;;;;;11.53;41.06;102146.44;5090105;28;20044;-62
2022/03/25 02:39:14;;;;;;;33.20;18.50;;;;;;;11.47;41.19;102141.41;5089966;28;20334;-63
2022/03/25 02:41:41;;;;;;;28.10;18.80;;;;;;;11.49;41.74;102143.97;5089833;28;20044;-62
2022/03/25 02:44:10;;;;;;;29.42;19.00;;;;;;;11.44;42.04;102144.19;5069427;28;20702;-62
2022/03/25 02:46:37;;;;;;;28.55;19.50;;;;;;;11.41;42.32;102136.41;5069546;28;20052;-63
2022/03/25 02:49:04;;;;;;;31.88;19.33;;;;;;;11.37;42.79;102150.56;5072346;28;20087;-62
2022/03/25 02:51:31;;;;;;;31.55;18.98;;;;;;;11.33;43.14;102147.19;5072644;28;20045;-62
2022/03/25 02:53:58;;;;;;;30.67;18.95;;;;;;;11.33;43.66;102149.81;5072635;28;20040;-62
2022/03/25 02:56:24;;;;;;;31.92;19.08;;;;;;;11.31;43.65;102153.41;5072632;28;20044;-62
2022/03/25 02:58:51;;;;;;;30.60;19.42;;;;;;;11.27;44.27;102148.28;5072613;28;20052;-62
2022/03/25 03:01:19;;;;;;;37.80;19.80;;;;;;;11.20;44.35;102144.16;5072114;28;20040;-62
2022/03/25 03:03:46;;;;;;;31.50;19.30;;;;;;;11.15;44.55;102143.47;5072041;28;20044;-62
2022/03/25 03:06:13;;;;;;;29.42;18.45;;;;;;;11.10;44.51;102146.25;5072331;28;20049;-62
2022/03/25 03:08:41;;;;;;;30.73;18.38;;;;;;;11.11;44.11;102148.00;5072454;28;20097;-63
2022/03/25 03:11:08;;;;;;;30.88;19.25;;;;;;;11.14;44.19;102154.06;5072560;28;20041;-61
2022/03/25 03:13:34;;;;;;;29.85;19.30;;;;;;;11.09;44.07;102152.44;5072177;28;20451;-62
2022/03/25 03:16:01;;;;;;;30.70;17.20;;;;;;;11.08;44.02;102150.75;5072269;28;20110;-61
2022/03/25 03:18:28;;;;;;;34.30;18.88;;;;;;;11.05;43.89;102150.00;5091294;28;20122;-62
2022/03/25 03:20:55;;;;;;;28.45;19.55;;;;;;;11.09;43.89;102149.81;5092574;28;20090;-62
2022/03/25 03:23:21;;;;;;;27.67;19.27;;;;;;;11.14;43.62;102149.66;5092339;28;20553;-63
2022/03/25 03:25:48;;;;;;;31.25;19.67;;;;;;;11.15;43.64;102148.75;5092354;28;20052;-62
2022/03/25 03:28:15;;;;;;;37.60;19.40;;;;;;;11.11;43.93;102149.78;5092327;28;20549;-63
2022/03/25 03:30:42;;;;;;;28.13;18.65;;;;;;;11.09;43.87;102147.19;5091422;28;20044;-62
2022/03/25 03:33:09;;;;;;;30.85;19.75;;;;;;;11.10;43.67;102150.69;5083103;28;20048;-62
2022/03/25 03:35:36;;;;;;;29.45;18.35;;;;;;;11.01;43.82;102156.25;5085778;28;20107;-62
2022/03/25 03:38:04;;;;;;;30.95;19.17;;;;;;;11.02;43.84;102157.97;5087866;28;20048;-62
2022/03/25 03:40:31;;;;;;;32.45;19.13;;;;;;;11.02;43.78;102152.72;5089094;28;20076;-63
2022/03/25 03:42:58;;;;;;;30.25;18.52;;;;;;;11.00;43.75;102152.78;5088744;28;20043;-62
2022/03/25 03:45:26;;;;;;;30.23;19.55;;;;;;;10.98;43.73;102161.63;5088691;28;20462;-62
2022/03/25 03:47:53;;;;;;;37.20;19.70;;;;;;;10.98;43.50;102159.00;5088816;28;20071;-62
2022/03/25 03:50:20;;;;;;;30.25;18.63;;;;;;;10.96;43.34;102156.41;5088008;28;20048;-61
2022/03/25 03:52:47;;;;;;;33.42;20.27;;;;;;;10.97;43.16;102159.91;5088640;28;20048;-63
2022/03/25 03:55:13;;;;;;;33.30;18.45;;;;;;;10.90;43.27;102161.88;5088931;28;20634;-62
2022/03/25 03:57:40;;;;;;;31.20;19.02;;;;;;;10.88;43.42;102163.69;5088741;28;20439;-62
2022/03/25 04:00:10;;;;;;;27.30;20.00;;;;;;;10.85;43.63;102169.91;5088845;28;20404;-62
2022/03/25 04:02:37;;;;;;;29.48;19.67;;;;;;;10.79;43.78;102178.00;5088545;28;20076;-62
2022/03/25 04:05:05;;;;;;;30.45;19.77;;;;;;;10.77;43.63;102177.22;5088652;28;20157;-62
2022/03/25 04:07:32;;;;;;;31.23;19.73;;;;;;;10.73;43.68;102173.00;5082044;28;20071;-62
2022/03/25 04:10:00;;;;;;;34.60;20.42;;;;;;;10.68;43.86;102174.88;5073179;28;20048;-62
2022/03/25 04:12:26;;;;;;;31.92;20.55;;;;;;;10.67;43.92;102176.66;5074507;28;20098;-62
2022/03/25 04:14:53;;;;;;;32.67;20.10;;;;;;;10.64;44.01;102183.78;5068635;28;20508;-62
2022/03/25 04:17:20;;;;;;;34.90;19.02;;;;;;;10.61;44.04;102182.13;5068477;28;20041;-62
2022/03/25 04:19:46;;;;;;;33.30;21.33;;;;;;;10.58;43.92;102182.22;5068618;28;20045;-62
2022/03/25 04:22:13;;;;;;;35.65;20.55;;;;;;;10.59;43.87;102176.94;5068424;28;20049;-62
2022/03/25 04:24:39;;;;;;;30.60;19.13;;;;;;;10.62;43.71;102175.97;5085713;28;20059;-63
2022/03/25 04:27:06;;;;;;;29.10;19.23;;;;;;;10.61;43.72;102174.25;5088598;28;20661;-62
2022/03/25 04:29:33;;;;;;;28.65;18.63;;;;;;;10.64;43.52;102183.78;5088292;28;20040;-62
2022/03/25 04:31:59;;;;;;;30.40;19.52;;;;;;;10.64;43.49;102184.66;5088573;28;20044;-62
2022/03/25 04:34:26;;;;;;;28.98;19.58;;;;;;;10.57;43.47;102188.38;5088433;28;20044;-62
2022/03/25 04:36:53;;;;;;;29.13;18.10;;;;;;;10.57;43.20;102186.59;5088597;28;20044;-62
2022/03/25 04:39:19;;;;;;;31.15;19.40;;;;;;;10.47;43.26;102193.06;5086313;28;20091;-62
2022/03/25 04:41:46;;;;;;;29.55;18.70;;;;;;;10.40;43.44;102192.44;5083662;28;20051;-62
2022/03/25 04:44:12;;;;;;;29.92;19.20;;;;;;;10.30;43.62;102199.69;5092106;28;20465;-63
2022/03/25 04:46:39;;;;;;;34.05;19.40;;;;;;;10.28;43.80;102206.78;5092187;28;20052;-62
2022/03/25 04:49:08;;;;;;;35.95;19.83;;;;;;;10.16;44.21;102208.91;5091965;28;20044;-62
2022/03/25 04:51:35;;;;;;;37.47;21.77;;;;;;;10.13;44.29;102209.84;5092062;28;20055;-62
2022/03/25 04:54:02;;;;;;;36.40;23.00;;;;;;;10.07;44.06;102210.06;5091856;28;20485;-62
2022/03/25 04:56:28;;;;;;;37.17;22.50;;;;;;;10.03;44.14;102209.31;5091664;28;20093;-62
2022/03/25 04:58:55;;;;;;;40.53;23.13;;;;;;;10.02;43.90;102210.22;5075586;28;20056;-61
2022/03/25 05:01:22;;;;;;;41.10;23.83;;;;;;;9.99;43.84;102214.69;5071314;28;20047;-62
2022/03/25 05:03:48;;;;;;;40.88;24.20;;;;;;;9.97;43.84;102220.81;5071472;28;20045;-62
2022/03/25 05:06:15;;;;;;;38.17;22.88;;;;;;;9.94;43.84;102220.06;5071315;28;20049;-62
2022/03/25 05:08:41;;;;;;;40.75;23.17;;;;;;;9.90;43.72;102221.06;5071185;28;20056;-62
2022/03/25 05:11:08;;;;;;;40.10;22.15;;;;;;;9.83;43.86;102230.00;5071311;28;20075;-62
2022/03/25 05:13:35;;;;;;;46.28;21.55;;;;;;;9.76;44.00;102224.09;5070877;28;20052;-62
2022/03/25 05:16:02;;;;;;;44.08;21.08;;;;;;;9.72;43.94;102233.81;5071191;28;20052;-62
2022/03/25 05:18:28;;;;;;;52.25;22.23;;;;;;;9.70;43.73;102234.75;5071127;28;20053;-63
2022/03/25 05:20:56;;;;;;;41.78;20.95;;;;;;;9.66;43.53;102227.88;5071161;28;20060;-62
2022/03/25 05:23:23;;;;;;;55.80;23.73;;;;;;;9.61;43.70;102235.88;5070848;28;20044;-62
2022/03/25 05:25:49;;;;;;;57.60;25.33;;;;;;;9.60;43.83;102240.25;5070929;28;20056;-62
2022/03/25 05:28:17;;;;;;;60.50;25.30;;;;;;;9.63;43.71;102236.69;5070400;28;24001;-62
2022/03/25 05:30:44;;;;;;;46.92;22.25;;;;;;;9.64;43.70;102249.75;5070637;28;20481;-62
2022/03/25 05:33:11;;;;;;;40.38;22.35;;;;;;;9.68;43.75;102240.03;5070987;28;20040;-62
2022/03/25 05:35:38;;;;;;;47.72;23.92;;;;;;;9.66;43.48;102254.94;5070853;28;20048;-62
2022/03/25 05:38:04;;;;;;;48.72;23.98;;;;;;;9.70;43.60;102261.84;5070897;28;20044;-62
2022/03/25 05:40:32;;;;;;;42.10;23.73;;;;;;;9.73;43.40;102258.28;5070558;28;20443;-62
2022/03/25 05:42:59;;;;;;;43.42;23.65;;;;;;;9.82;43.25;102260.63;5070736;28;20068;-62
2022/03/25 05:45:26;;;;;;;43.97;22.15;;;;;;;9.87;43.28;102271.81;5070050;28;20044;-62
2022/03/25 05:47:53;;;;;;;47.90;23.55;;;;;;;9.93;43.13;102266.41;5070690;28;20097;-63
2022/03/25 05:50:20;;;;;;;56.60;22.95;;;;;;;9.94;43.02;102269.88;5072741;28;20045;-62
2022/03/25 05:52:47;;;;;;;51.38;24.13;;;;;;;10.00;43.05;102280.19;5090664;28;20048;-62
2022/03/25 05:55:16;;;;;;;58.00;25.60;;;;;;;10.04;43.04;102273.09;5091068;28;20048;-62
2022/03/25 05:57:44;;;;;;;49.88;23.77;;;;;;;10.12;43.03;102276.38;5090769;28;20075;-62
2022/03/25 06:00:14;;;;;;;30.23;14.57;;;;;;;10.29;43.30;102284.56;5086605;28;20093;-62
2022/03/25 06:02:42;;;;;;;12.50;6.72;;;;;;;11.61;43.29;102272.34;5090261;28;20048;-62
2022/03/25 06:05:10;;;;;;;50.38;24.77;;;;;;;11.25;44.38;102278.88;5090142;28;20139;-62
2022/03/25 06:07:39;;;;;;;51.30;24.15;;;;;;;10.99;44.62;102277.13;5090488;28;20048;-62
2022/03/25 06:10:07;;;;;;;49.97;24.10;;;;;;;10.84;44.25;102281.13;5090423;28;20052;-61
2022/03/25 06:12:34;;;;;;;53.13;23.88;;;;;;;10.75;44.16;102278.81;5090479;28;20047;-62
2022/03/25 06:15:01;;;;;;;54.30;23.58;;;;;;;10.65;44.04;102280.00;5090301;28;20056;-61
2022/03/25 06:17:28;;;;;;;47.13;23.50;;;;;;;10.66;43.87;102273.84;5079513;28;20040;-61
2022/03/25 06:19:54;;;;;;;52.97;24.05;;;;;;;10.65;43.80;102280.00;5080112;28;20514;-62
2022/03/25 06:22:24;;;;;;;45.20;24.67;;;;;;;10.67;43.80;102284.31;5070881;28;20109;-62
2022/03/25 06:24:52;;;;;;;43.30;23.40;;;;;;;10.70;43.73;102283.34;5069772;28;20374;-62
2022/03/25 06:27:19;;;;;;;47.10;23.42;;;;;;;10.69;43.52;102284.25;5086267;28;20054;-62
2022/03/25 06:29:46;;;;;;;44.22;24.30;;;;;;;10.74;43.57;102284.97;5090165;28;20054;-62
2022/03/25 06:32:12;;;;;;;44.58;24.02;;;;;;;10.77;43.54;102293.59;5086223;28;20040;-62
2022/03/25 06:34:39;;;;;;;43.15;23.45;;;;;;;10.81;43.57;102291.72;5069554;28;20075;-65
2022/03/25 06:37:06;;;;;;;50.97;24.15;;;;;;;10.87;43.65;102291.53;5069615;28;20102;-62
2022/03/25 06:39:32;;;;;;;52.00;24.15;;;;;;;10.97;43.54;102299.09;5069424;28;20056;-62
2022/03/25 06:41:59;;;;;;;51.90;24.90;;;;;;;11.05;43.67;102300.56;5069758;28;20070;-61
2022/03/25 06:44:25;;;;;;;52.47;24.65;;;;;;;11.15;43.72;102300.25;5069352;28;20049;-61
2022/03/25 06:46:52;;;;;;;45.83;23.80;;;;;;;11.27;43.60;102295.47;5069603;28;20056;-62
2022/03/25 06:49:19;;;;;;;53.83;24.48;;;;;;;11.42;43.55;102303.69;5071580;28;20120;-62
2022/03/25 06:51:46;;;;;;;39.22;14.98;;;;;;;11.68;43.71;102305.41;5078106;28;20455;-63
2022/03/25 06:54:12;;;;;;;54.17;24.27;;;;;;;12.36;43.62;102297.63;5068292;28;20094;-62
2022/03/25 06:56:40;;;;;;;46.90;25.70;;;;;;;12.32;43.41;102298.66;5069203;28;20103;-62
2022/03/25 06:59:07;;;;;;;58.55;26.10;;;;;;;12.41;42.94;102305.34;5069378;28;20044;-62
2022/03/25 07:01:34;;;;;;;39.22;24.85;;;;;;;12.58;42.45;102291.50;5069178;28;20493;-62
2022/03/25 07:04:03;;;;;;;46.80;26.55;;;;;;;12.69;41.71;102294.56;5069576;28;20052;-63
2022/03/25 07:06:30;;;;;;;42.70;24.42;;;;;;;12.81;40.97;102295.84;5068526;28;20060;-62
2022/03/25 07:08:57;;;;;;;33.15;10.48;;;;;;;13.45;40.14;102295.84;5070690;28;20051;-62
2022/03/25 07:11:24;;;;;;;36.45;23.30;;;;;;;13.87;41.00;102292.22;5081181;28;20040;-62
2022/03/25 07:13:51;;;;;;;37.85;23.65;;;;;;;13.64;41.20;102296.75;5081766;28;20052;-61
2022/03/25 07:16:21;;;;;;;45.97;24.95;;;;;;;13.52;40.54;102298.16;5089208;28;20060;-61
2022/03/25 07:18:47;;;;;;;40.80;25.02;;;;;;;13.65;39.51;102298.47;5080750;28;20056;-63
2022/03/25 07:21:16;;;;;;;47.95;26.38;;;;;;;13.72;38.89;102296.41;5088739;28;20047;-62
2022/03/25 07:23:43;;;;;;;45.28;26.40;;;;;;;13.87;38.33;102300.13;5085661;28;20550;-62
2022/03/25 07:26:10;;;;;;;38.38;25.83;;;;;;;13.94;37.70;102301.56;5088584;28;20095;-63
2022/03/25 07:28:37;;;;;;;41.00;26.00;;;;;;;14.01;37.66;102291.56;5086398;28;20055;-63
2022/03/25 07:31:05;;;;;;;41.83;26.02;;;;;;;14.18;37.15;102299.56;5088391;28;20089;-62
2022/03/25 07:33:31;;;;;;;39.60;24.55;;;;;;;14.27;36.86;102298.28;5088333;28;20420;-62
2022/03/25 07:36:00;;;;;;;42.10;25.58;;;;;;;14.35;36.47;102301.41;5088608;28;20040;-62
2022/03/25 07:38:28;;;;;;;47.50;26.23;;;;;;;14.45;36.15;102296.53;5086636;28;20052;-62
2022/03/25 07:40:55;;;;;;;37.40;25.33;;;;;;;14.54;35.80;102292.59;5087851;28;20044;-62
2022/03/25 07:43:22;;;;;;;40.85;26.33;;;;;;;14.69;35.74;102298.97;5088130;28;20466;-62
2022/03/25 07:45:49;;;;;;;41.22;26.33;;;;;;;14.82;35.37;102302.69;5088335;28;20044;-62
2022/03/25 07:48:16;;;;;;;39.55;26.17;;;;;;;14.79;35.41;102302.00;5085689;28;20127;-62
2022/03/25 07:50:42;;;;;;;38.75;25.27;;;;;;;14.99;35.11;102309.78;5087566;28;20044;-62
2022/03/25 07:53:09;;;;;;;42.00;26.05;;;;;;;15.11;35.12;102302.16;5087450;28;20048;-62
2022/03/25 07:55:36;;;;;;;44.90;26.77;;;;;;;15.28;35.01;102302.16;5079763;28;20846;-63
2022/03/25 07:58:02;;;;;;;42.63;25.10;;;;;;;15.39;35.00;102298.97;5079458;28;20093;-63
2022/03/25 08:00:30;;;;;;;40.58;26.02;;;;;;;15.53;34.66;102300.88;5088926;28;20052;-67
2022/03/25 08:02:57;;;;;;;44.60;25.20;;;;;;;15.47;35.00;102310.00;5089055;28;20349;-63
2022/03/25 08:05:24;;;;;;;41.08;26.42;;;;;;;15.65;34.66;102305.50;5088828;28;20113;-66
2022/03/25 08:07:54;;;;;;;41.15;26.48;;;;;;;15.78;34.38;102305.75;5088718;28;20051;-63
2022/03/25 08:10:24;;;;;;;42.45;24.80;;;;;;;15.99;33.93;102303.72;5084792;28;20406;-63
2022/03/25 08:12:51;;;;;;;48.67;26.02;;;;;;;16.18;33.86;102304.53;5087140;28;20051;-66
2022/03/25 08:15:18;;;;;;;43.15;26.98;;;;;;;16.28;33.38;102292.47;5080772;28;20542;-63
2022/03/25 08:17:49;;;;;;;42.30;27.33;;;;;;;16.39;33.45;102292.72;5071849;28;20405;-64
2022/03/25 08:20:21;;;;;;;39.80;25.15;;;;;;;16.48;33.17;102292.19;5079046;28;20184;-63
2022/03/25 08:22:48;;;;;;;40.95;26.27;;;;;;;16.62;32.86;102286.13;5091744;28;20101;-62
2022/03/25 08:28:01;;;;;;;42.20;26.42;;;;;;;16.90;32.17;102295.13;5089777;28;20040;-68
2022/03/25 08:30:30;;;;;;;46.85;27.00;;;;;;;16.96;32.06;102299.22;5091631;28;20356;-65
2022/03/25 08:32:57;;;;;;;43.30;25.77;;;;;;;17.24;31.83;102297.59;5090888;28;20545;-62
2022/03/25 08:35:28;;;;;;;43.13;25.50;;;;;;;17.34;31.52;102289.94;5090950;28;20036;-67
2022/03/25 08:37:55;;;;;;;40.67;25.98;;;;;;;17.41;31.02;102286.81;5091283;28;20442;-63
2022/03/25 08:40:23;;;;;;;39.78;25.17;;;;;;;17.61;31.10;102280.28;5087566;28;20484;-63
2022/03/25 08:42:50;;;;;;;43.83;24.33;;;;;;;17.76;30.51;102285.56;5091569;28;20492;-63
2022/03/25 08:45:17;;;;;;;37.67;25.65;;;;;;;18.00;30.38;102285.84;5089198;28;20076;-63
2022/03/25 08:47:45;;;;;;;44.35;25.20;;;;;;;18.10;30.07;102283.47;5092032;28;20105;-62
2022/03/25 08:50:13;;;;;;;38.10;22.88;;;;;;;18.31;29.73;102283.03;5091539;28;20044;-63
2022/03/25 08:52:41;;;;;;;37.75;24.60;;;;;;;18.40;29.57;102282.44;5091888;28;20044;-63
2022/03/25 08:55:09;;;;;;;42.08;24.40;;;;;;;18.54;28.93;102276.22;5090302;28;20067;-63
2022/03/25 08:57:38;;;;;;;44.63;23.92;;;;;;;18.68;28.61;102280.63;5090980;28;20462;-64
2022/03/25 09:00:08;;;;;;;38.30;24.00;;;;;;;18.82;28.48;102285.88;5088231;28;20400;-63
2022/03/25 09:02:34;;;;;;;42.35;24.63;;;;;;;19.00;28.35;102278.47;5086756;28;20543;-64
2022/03/25 09:05:01;;;;;;;35.35;22.65;;;;;;;19.16;28.03;102282.75;5090647;28;20702;-63
2022/03/25 09:07:28;;;;;;;29.55;22.00;;;;;;;19.28;27.94;102281.91;5090904;28;20048;-63
2022/03/25 09:09:54;;;;;;;33.85;22.17;;;;;;;19.41;27.22;102282.78;5090789;28;20390;-62
2022/03/25 09:12:21;;;;;;;33.55;22.67;;;;;;;19.59;27.24;102282.41;5091119;28;20512;-63
2022/03/25 09:14:48;;;;;;;35.22;22.75;;;;;;;19.69;26.79;102277.28;5089186;28;20048;-63
2022/03/25 09:17:15;;;;;;;34.88;23.75;;;;;;;19.94;26.63;102283.56;5084154;28;20041;-63
2022/03/25 09:19:45;;;;;;;36.63;22.40;;;;;;;20.13;25.89;102280.44;5070680;28;20084;-63
2022/03/25 09:22:12;;;;;;;36.75;22.85;;;;;;;20.28;25.57;102268.63;5070388;28;20044;-63
2022/03/25 09:24:39;;;;;;;33.75;22.95;;;;;;;20.40;25.38;102269.53;5070492;28;20522;-63
2022/03/25 09:27:05;;;;;;;38.50;22.88;;;;;;;20.51;25.29;102268.75;5070569;28;20105;-63
2022/03/25 09:29:32;;;;;;;37.05;23.13;;;;;;;20.63;25.12;102267.84;5070142;28;20049;-63
2022/03/25 09:31:58;;;;;;;35.78;24.00;;;;;;;20.66;24.60;102264.91;5070247;28;20508;-63
2022/03/25 09:37:30;;;;;;;38.97;25.10;;;;;;;20.91;24.29;102270.22;5070601;28;20098;-63
2022/03/25 09:39:57;;;;;;;36.90;23.73;;;;;;;21.13;24.13;102258.78;5082792;28;20056;-63
2022/03/25 09:42:25;;;;;;;36.65;24.08;;;;;;;21.29;23.69;102259.28;5090172;28;20052;-63
2022/03/25 09:44:51;;;;;;;43.60;25.95;;;;;;;21.54;23.31;102251.97;5090291;28;20442;-63
2022/03/25 09:47:20;;;;;;;38.85;25.88;;;;;;;21.73;23.11;102255.91;5090477;28;20056;-63
2022/03/25 09:49:46;;;;;;;38.53;25.77;;;;;;;21.81;23.32;102248.97;5079829;28;20048;-63
2022/03/25 09:52:13;;;;;;;37.97;27.27;;;;;;;21.81;23.06;102254.31;5069828;28;20076;-63
2022/03/25 09:55:01;;;;;;;47.13;27.20;;;;;;;22.06;22.55;102246.13;5069519;28;20670;-63
2022/03/25 09:57:29;;;;;;;41.17;27.00;;;;;;;22.24;22.41;102238.41;5070150;28;20089;-63
2022/03/25 09:59:56;;;;;;;35.35;26.38;;;;;;;22.33;22.42;102242.97;5070127;28;20056;-63
2022/03/25 10:02:24;;;;;;;41.75;28.33;;;;;;;22.45;22.65;102238.47;5069340;28;20094;-63
2022/03/25 10:04:56;;;;;;;41.08;27.73;;;;;;;22.63;22.21;102236.06;5069714;28;20080;-65
2022/03/25 10:07:27;;;;;;;41.55;27.42;;;;;;;22.74;22.43;102230.66;5069499;28;20113;-63
2022/03/25 10:10:11;;;;;;;37.83;26.65;;;;;;;22.72;22.47;102229.94;5080658;28;20052;-63
2022/03/25 10:12:39;;;;;;;37.28;27.08;;;;;;;22.74;22.47;102227.13;5089458;28;20553;-63
2022/03/25 10:15:18;;;;;;;39.75;27.63;;;;;;;22.80;22.27;102231.94;5089822;28;20056;-62
2022/03/25 10:17:49;;;;;;;39.67;28.00;;;;;;;22.91;22.27;102226.53;5090056;28;20480;-63
2022/03/25 10:20:17;;;;;;;41.20;26.30;;;;;;;23.06;22.24;102228.84;5085796;28;20070;-63
2022/03/25 10:23:13;;;;;;;39.60;27.13;;;;;;;23.13;22.28;102222.00;5078776;28;20051;-64
2022/03/25 10:25:47;;;;;;;37.38;26.27;;;;;;;23.33;22.26;102219.44;5071082;28;20081;-64
2022/03/25 10:28:31;;;;;;;44.75;28.60;;;;;;;23.54;21.93;102222.91;5069631;28;20105;-64
2022/03/25 10:31:00;;;;;;;42.28;27.60;;;;;;;23.70;21.93;102224.22;5069393;28;20048;-64
2022/03/25 10:33:28;;;;;;;43.40;27.65;;;;;;;23.78;21.84;102221.69;5083260;28;20080;-67
2022/03/25 10:35:58;;;;;;;34.53;25.67;;;;;;;23.79;22.01;102226.94;5089113;28;20105;-65
2022/03/25 10:38:26;;;;;;;44.13;28.42;;;;;;;23.89;21.71;102221.56;5088491;28;20048;-65
2022/03/25 10:40:56;;;;;;;36.08;27.15;;;;;;;23.96;21.82;102221.91;5087768;28;20044;-68
2022/03/25 10:43:24;;;;;;;39.35;27.95;;;;;;;23.98;21.58;102216.41;5086865;28;20044;-65
2022/03/25 10:45:51;;;;;;;42.55;27.27;;;;;;;24.12;21.75;102213.28;5087787;28;20036;-64
2022/03/25 10:48:19;;;;;;;44.80;29.80;;;;;;;24.28;21.46;102216.25;5089095;28;20056;-65
2022/03/25 10:51:08;;;;;;;46.00;30.40;;;;;;;24.40;21.22;102211.59;5088944;28;20488;-65
2022/03/25 10:53:37;;;;;;;39.47;27.17;;;;;;;24.45;21.04;102206.66;5088745;28;20040;-65
2022/03/25 10:56:10;;;;;;;43.08;30.30;;;;;;;24.58;20.92;102201.00;5077739;28;20216;-64
2022/03/25 10:58:37;;;;;;;39.33;29.25;;;;;;;24.49;21.05;102199.16;5082615;28;20044;-65
2022/03/25 11:01:06;;;;;;;49.17;30.45;;;;;;;24.57;20.58;102199.28;5088776;28;20070;-65
2022/03/25 11:03:33;;;;;;;40.35;29.08;;;;;;;24.58;20.42;102192.94;5089034;28;20130;-64
2022/03/25 11:06:00;;;;;;;45.00;29.42;;;;;;;24.74;20.56;102191.53;5088110;28;20048;-66
2022/03/25 11:08:28;;;;;;;41.80;28.00;;;;;;;24.65;20.13;102190.56;5087793;28;20147;-65
2022/03/25 11:10:58;;;;;;;41.72;28.58;;;;;;;24.71;20.45;102197.16;5085903;28;20044;-67
2022/03/25 11:13:26;;;;;;;35.60;26.95;;;;;;;24.88;20.14;102184.84;5086873;28;20040;-64
2022/03/25 11:15:55;;;;;;;37.92;28.33;;;;;;;25.07;20.13;102181.25;5086996;28;20561;-64
2022/03/25 11:18:21;;;;;;;39.00;28.23;;;;;;;24.98;19.92;102180.28;5087824;28;20105;-64